createdAt,value
2022-10-16T00:00:05.407Z,15.89
2022-10-16T00:02:31.791Z,15.90
2022-10-16T00:04:58.335Z,15.86
2022-10-16T00:07:25.008Z,15.87
2022-10-16T00:09:51.535Z,15.85
2022-10-16T00:12:17.860Z,15.80
2022-10-16T00:14:44.959Z,15.85
2022-10-16T00:17:11.399Z,15.83
2022-10-16T00:19:37.742Z,15.85
2022-10-16T00:22:04.137Z,15.84
2022-10-16T00:24:30.517Z,15.86
2022-10-16T00:26:56.902Z,15.82
2022-10-16T00:29:23.477Z,15.80
2022-10-16T00:31:49.848Z,15.83
2022-10-16T00:34:16.255Z,15.81
2022-10-16T00:36:42.624Z,15.68
2022-10-16T00:39:09.010Z,15.86
2022-10-16T00:41:35.469Z,15.77
2022-10-16T00:44:03.221Z,15.70
2022-10-16T00:46:32.589Z,15.72
2022-10-16T00:48:58.881Z,15.80
2022-10-16T00:51:29.087Z,15.80
2022-10-16T00:53:56.110Z,15.87
2022-10-16T00:56:22.454Z,15.83
2022-10-16T00:58:48.971Z,15.80
2022-10-16T01:01:15.504Z,15.63
2022-10-16T01:03:41.863Z,15.73
2022-10-16T01:06:09.002Z,15.75
2022-10-16T01:08:42.118Z,15.80
2022-10-16T01:11:37.570Z,15.80
2022-10-16T01:14:11.512Z,15.79
2022-10-16T01:16:48.013Z,15.81
2022-10-16T01:19:37.428Z,15.81
2022-10-16T01:22:05.224Z,15.65
2022-10-16T01:24:41.964Z,15.64
2022-10-16T01:27:14.364Z,15.73
2022-10-16T01:29:43.699Z,15.75
2022-10-16T01:32:18.535Z,15.71
2022-10-16T01:34:56.895Z,15.70
2022-10-16T01:37:30.533Z,15.73
2022-10-16T01:40:00.077Z,15.77
2022-10-16T01:42:30.473Z,15.79
2022-10-16T01:44:57.206Z,15.74
2022-10-16T01:47:25.818Z,15.74
2022-10-16T01:49:53.770Z,15.74
2022-10-16T01:52:22.331Z,15.68
2022-10-16T01:54:50.274Z,15.69
2022-10-16T01:57:17.508Z,15.73
2022-10-16T01:59:47.015Z,15.73
2022-10-16T02:02:14.161Z,15.73
2022-10-16T02:04:43.827Z,15.75
2022-10-16T02:07:10.780Z,15.68
2022-10-16T02:09:37.189Z,15.66
2022-10-16T02:12:14.768Z,15.57
2022-10-16T02:14:41.589Z,15.62
2022-10-16T02:17:12.265Z,15.63
2022-10-16T02:22:11.385Z,15.64
2022-10-16T02:24:49.096Z,15.59
2022-10-16T02:27:24.456Z,15.64
2022-10-16T02:29:53.321Z,15.67
2022-10-16T02:32:22.106Z,15.68
2022-10-16T02:34:50.069Z,15.66
2022-10-16T02:37:17.708Z,15.65
2022-10-16T02:39:44.460Z,15.71
2022-10-16T02:42:14.084Z,15.65
2022-10-16T02:44:40.529Z,15.55
2022-10-16T02:47:07.199Z,15.45
2022-10-16T02:49:33.556Z,15.53
2022-10-16T02:51:59.884Z,15.45
2022-10-16T02:54:26.274Z,15.60
2022-10-16T02:56:52.883Z,15.60
2022-10-16T02:59:20.386Z,15.68
2022-10-16T03:01:46.925Z,15.64
2022-10-16T03:04:13.242Z,15.66
2022-10-16T03:06:39.589Z,15.63
2022-10-16T03:09:05.950Z,15.63
2022-10-16T03:11:32.260Z,15.57
2022-10-16T03:13:58.576Z,15.56
2022-10-16T03:16:24.895Z,15.59
2022-10-16T03:18:51.303Z,15.48
2022-10-16T03:21:17.993Z,15.54
2022-10-16T03:23:44.402Z,15.51
2022-10-16T03:26:10.757Z,15.47
2022-10-16T03:28:37.245Z,15.54
2022-10-16T03:31:03.679Z,15.57
2022-10-16T03:33:30.507Z,15.47
2022-10-16T03:35:56.844Z,15.55
2022-10-16T03:38:23.302Z,15.53
2022-10-16T03:40:49.695Z,15.52
2022-10-16T03:43:16.353Z,15.39
2022-10-16T03:45:42.739Z,15.47
2022-10-16T03:48:10.277Z,15.52
2022-10-16T03:50:36.672Z,15.43
2022-10-16T03:53:03.277Z,15.42
2022-10-16T03:55:29.641Z,15.45
2022-10-16T03:57:55.969Z,15.46
2022-10-16T04:00:22.300Z,15.46
2022-10-16T04:02:48.617Z,15.43
2022-10-16T04:05:15.381Z,15.54
2022-10-16T04:07:41.714Z,15.52
2022-10-16T04:10:09.215Z,15.60
2022-10-16T04:12:35.520Z,15.62
2022-10-16T04:15:01.882Z,15.63
2022-10-16T04:17:28.632Z,15.64
2022-10-16T04:19:55.156Z,15.68
2022-10-16T04:22:21.536Z,15.60
2022-10-16T04:24:47.892Z,15.66
2022-10-16T04:27:14.217Z,15.65
2022-10-16T04:29:40.588Z,15.68
2022-10-16T04:32:08.808Z,15.57
2022-10-16T04:34:35.649Z,15.59
2022-10-16T04:37:01.966Z,15.68
2022-10-16T04:39:28.293Z,15.67
2022-10-16T04:41:54.638Z,15.56
2022-10-16T04:44:20.973Z,15.65
2022-10-16T04:46:47.315Z,15.74
2022-10-16T04:49:13.632Z,15.59
2022-10-16T04:51:40.053Z,15.55
2022-10-16T04:54:06.449Z,15.62
2022-10-16T04:56:32.839Z,15.68
2022-10-16T04:58:59.211Z,15.67
2022-10-16T05:01:27.589Z,15.60
2022-10-16T05:03:54.149Z,15.57
2022-10-16T05:06:20.489Z,15.58
2022-10-16T05:08:46.954Z,15.59
2022-10-16T05:11:13.291Z,15.73
2022-10-16T05:13:39.616Z,15.47
2022-10-16T05:16:06.173Z,15.41
2022-10-16T05:18:32.529Z,15.36
2022-10-16T05:20:58.839Z,15.31
2022-10-16T05:23:25.280Z,15.28
2022-10-16T05:25:55.699Z,15.37
2022-10-16T05:28:24.118Z,15.41
2022-10-16T05:30:50.497Z,15.38
2022-10-16T05:33:16.924Z,15.33
2022-10-16T05:35:44.776Z,15.31
2022-10-16T05:38:11.124Z,15.30
2022-10-16T05:40:37.455Z,15.35
2022-10-16T05:43:03.949Z,15.00
2022-10-16T05:45:30.258Z,15.21
2022-10-16T05:47:56.733Z,15.25
2022-10-16T05:50:23.188Z,15.34
2022-10-16T05:52:49.651Z,15.38
2022-10-16T05:55:16.655Z,15.37
2022-10-16T05:57:44.068Z,15.39
2022-10-16T06:00:11.109Z,15.39
2022-10-16T06:02:37.531Z,15.40
2022-10-16T06:05:03.973Z,15.38
2022-10-16T06:07:30.352Z,15.40
2022-10-16T06:09:56.673Z,15.33
2022-10-16T06:12:23.037Z,15.34
2022-10-16T06:14:50.447Z,15.36
2022-10-16T06:17:16.865Z,15.42
2022-10-16T06:19:43.190Z,15.30
2022-10-16T06:22:09.728Z,15.27
2022-10-16T06:24:36.158Z,15.20
2022-10-16T06:27:03.782Z,15.23
2022-10-16T06:29:30.187Z,15.31
2022-10-16T06:31:56.504Z,15.33
2022-10-16T06:34:22.847Z,15.31
2022-10-16T06:36:49.159Z,15.32
2022-10-16T06:39:15.466Z,15.40
2022-10-16T06:41:41.784Z,15.56
2022-10-16T06:44:08.723Z,15.60
2022-10-16T06:46:35.121Z,15.68
2022-10-16T06:49:01.568Z,15.73
2022-10-16T06:51:28.197Z,16.66
2022-10-16T06:54:04.712Z,17.01
2022-10-16T06:56:32.148Z,18.56
2022-10-16T06:58:59.050Z,19.38
2022-10-16T07:01:26.064Z,19.09
2022-10-16T07:03:52.985Z,18.73
2022-10-16T07:06:20.757Z,18.90
2022-10-16T07:08:47.835Z,18.46
2022-10-16T07:11:18.482Z,18.91
2022-10-16T07:13:49.290Z,20.50
2022-10-16T07:16:20.235Z,19.91
2022-10-16T07:18:47.494Z,19.10
2022-10-16T07:21:15.041Z,18.66
2022-10-16T07:23:41.956Z,18.48
2022-10-16T07:26:08.426Z,18.25
2022-10-16T07:28:35.336Z,18.17
2022-10-16T07:31:02.808Z,18.51
2022-10-16T07:33:29.577Z,19.02
2022-10-16T07:35:56.161Z,18.94
2022-10-16T07:38:22.916Z,18.83
2022-10-16T07:40:49.586Z,18.46
2022-10-16T07:43:15.906Z,18.18
2022-10-16T07:45:50.095Z,18.08
2022-10-16T07:48:16.833Z,17.84
2022-10-16T07:50:43.533Z,17.54
2022-10-16T07:53:10.397Z,17.59
2022-10-16T07:55:36.745Z,17.59
2022-10-16T07:58:04.173Z,17.66
2022-10-16T08:00:30.824Z,17.82
2022-10-16T08:03:00.937Z,18.05
2022-10-16T08:05:30.645Z,18.20
2022-10-16T08:07:57.162Z,18.26
2022-10-16T08:10:25.711Z,17.88
2022-10-16T08:12:52.379Z,17.87
2022-10-16T08:15:18.933Z,17.87
2022-10-16T08:17:45.289Z,17.61
2022-10-16T08:20:11.902Z,17.52
2022-10-16T08:22:38.226Z,17.42
2022-10-16T08:25:04.658Z,17.63
2022-10-16T08:27:34.044Z,17.92
2022-10-16T08:30:00.526Z,18.23
2022-10-16T08:32:27.697Z,18.91
2022-10-16T08:34:54.282Z,19.18
2022-10-16T08:37:20.671Z,18.83
2022-10-16T08:39:46.982Z,18.78
2022-10-16T08:42:32.168Z,18.71
2022-10-16T08:45:06.237Z,18.47
2022-10-16T08:47:32.595Z,19.92
2022-10-16T08:50:03.973Z,20.29
2022-10-16T08:52:33.173Z,20.39
2022-10-16T08:54:59.651Z,20.20
2022-10-16T08:57:27.774Z,19.57
2022-10-16T09:00:01.344Z,19.55
2022-10-16T09:02:28.185Z,19.82
2022-10-16T09:05:19.054Z,20.42
2022-10-16T09:07:45.375Z,21.34
2022-10-16T09:10:17.834Z,21.92
2022-10-16T09:12:57.452Z,22.25
2022-10-16T09:15:23.845Z,21.59
2022-10-16T09:17:50.152Z,21.24
2022-10-16T09:20:19.353Z,20.37
2022-10-16T09:22:46.012Z,20.12
2022-10-16T09:25:14.142Z,20.20
2022-10-16T09:27:41.014Z,20.98
2022-10-16T09:30:20.700Z,21.74
2022-10-16T09:32:50.909Z,22.53
2022-10-16T09:35:19.060Z,22.54
2022-10-16T09:37:46.736Z,22.49
2022-10-16T09:40:14.522Z,22.49
2022-10-16T09:42:40.938Z,22.52
2022-10-16T09:45:21.617Z,22.60
2022-10-16T09:47:47.977Z,22.67
2022-10-16T09:50:33.500Z,23.08
2022-10-16T09:53:12.109Z,22.72
2022-10-16T09:55:48.883Z,23.18
2022-10-16T09:58:15.187Z,23.46
2022-10-16T10:00:42.783Z,23.10
2022-10-16T10:03:12.533Z,22.83
2022-10-16T10:05:40.369Z,22.83
2022-10-16T10:08:07.353Z,23.34
2022-10-16T10:10:35.376Z,23.25
2022-10-16T10:13:01.782Z,22.81
2022-10-16T10:15:30.813Z,22.87
2022-10-16T10:17:58.468Z,22.25
2022-10-16T10:20:28.910Z,22.38
2022-10-16T10:22:56.661Z,22.24
2022-10-16T10:25:31.025Z,22.24
2022-10-16T10:28:01.460Z,21.71
2022-10-16T10:30:46.676Z,22.41
2022-10-16T10:33:17.351Z,21.95
2022-10-16T10:35:52.767Z,21.71
2022-10-16T10:38:28.423Z,21.68
2022-10-16T10:40:54.738Z,21.37
2022-10-16T10:43:33.050Z,21.09
2022-10-16T10:46:01.416Z,21.05
2022-10-16T10:51:12.724Z,21.64
2022-10-16T10:53:57.972Z,21.58
2022-10-16T10:56:45.652Z,21.81
2022-10-16T10:59:18.109Z,21.45
2022-10-16T11:02:07.537Z,21.90
2022-10-16T11:04:48.996Z,22.22
2022-10-16T11:07:18.105Z,21.77
2022-10-16T11:09:49.543Z,21.80
2022-10-16T11:12:19.767Z,22.00
2022-10-16T11:14:51.886Z,21.98
2022-10-16T11:17:21.365Z,21.58
2022-10-16T11:19:50.239Z,21.74
2022-10-16T11:22:23.886Z,21.79
2022-10-16T11:24:53.984Z,21.65
2022-10-16T11:27:24.510Z,21.18
2022-10-16T11:29:57.361Z,21.53
2022-10-16T11:32:26.451Z,21.61
2022-10-16T11:35:01.280Z,21.64
2022-10-16T11:37:32.186Z,21.49
2022-10-16T11:40:04.559Z,21.14
2022-10-16T11:42:43.034Z,21.30
2022-10-16T11:45:23.672Z,21.57
2022-10-16T11:47:59.951Z,21.52
2022-10-16T11:50:32.670Z,21.48
2022-10-16T11:53:14.330Z,21.71
2022-10-16T11:55:44.599Z,21.74
2022-10-16T11:58:34.324Z,21.61
2022-10-16T12:01:04.697Z,21.39
2022-10-16T12:03:51.553Z,21.51
2022-10-16T12:06:31.081Z,21.35
2022-10-16T12:08:59.738Z,21.63
2022-10-16T12:11:29.135Z,21.87
2022-10-16T12:14:13.759Z,22.07
2022-10-16T12:16:51.318Z,22.29
2022-10-16T12:19:18.534Z,22.56
2022-10-16T12:21:46.238Z,22.32
2022-10-16T12:24:23.113Z,22.29
2022-10-16T12:26:50.879Z,22.16
2022-10-16T12:29:36.133Z,22.38
2022-10-16T12:32:03.947Z,22.01
2022-10-16T12:34:33.311Z,22.34
2022-10-16T12:37:09.550Z,22.51
2022-10-16T12:39:37.789Z,22.49
2022-10-16T12:42:05.480Z,22.61
2022-10-16T12:44:35.804Z,22.44
2022-10-16T12:47:02.733Z,22.19
2022-10-16T12:49:31.701Z,22.46
2022-10-16T12:51:58.735Z,22.55
2022-10-16T12:54:39.630Z,22.34
2022-10-16T12:57:14.809Z,22.44
2022-10-16T13:00:10.728Z,22.32
2022-10-16T13:02:49.083Z,22.55
2022-10-16T13:05:15.534Z,22.46
2022-10-16T13:07:50.969Z,22.43
2022-10-16T13:10:36.216Z,22.53
2022-10-16T13:13:21.364Z,22.57
2022-10-16T13:15:47.652Z,22.50
2022-10-16T13:18:16.837Z,22.46
2022-10-16T13:20:58.607Z,22.50
2022-10-16T13:23:26.459Z,22.49
2022-10-16T13:25:58.738Z,22.57
2022-10-16T13:28:29.986Z,22.35
2022-10-16T13:30:59.026Z,22.58
2022-10-16T13:33:34.215Z,22.53
2022-10-16T13:36:01.256Z,22.33
2022-10-16T13:38:29.005Z,22.58
2022-10-16T13:41:00.060Z,22.64
2022-10-16T13:43:29.471Z,22.43
2022-10-16T13:45:55.767Z,22.66
2022-10-16T13:48:22.182Z,22.32
2022-10-16T13:50:59.159Z,22.39
2022-10-16T13:53:25.511Z,22.42
2022-10-16T13:55:51.837Z,22.50
2022-10-16T13:58:18.211Z,22.28
2022-10-16T14:00:59.252Z,22.38
2022-10-16T14:03:26.435Z,22.20
2022-10-16T14:05:55.874Z,22.29
2022-10-16T14:08:23.409Z,22.39
2022-10-16T14:10:51.284Z,22.43
2022-10-16T14:13:19.900Z,22.47
2022-10-16T14:15:48.400Z,22.60
2022-10-16T14:18:19.277Z,22.58
2022-10-16T14:20:45.616Z,22.47
2022-10-16T14:23:29.966Z,22.47
2022-10-16T14:26:07.325Z,22.28
2022-10-16T14:28:33.767Z,22.05
2022-10-16T14:31:01.048Z,22.29
2022-10-16T14:33:30.628Z,22.15
2022-10-16T14:36:02.021Z,22.02
2022-10-16T14:38:28.424Z,22.06
2022-10-16T14:40:55.517Z,22.23
2022-10-16T14:43:23.174Z,22.26
2022-10-16T14:45:53.933Z,22.15
2022-10-16T14:48:20.788Z,22.14
2022-10-16T14:50:47.235Z,21.98
2022-10-16T14:53:14.281Z,22.08
2022-10-16T14:55:41.665Z,22.14
2022-10-16T14:58:27.344Z,21.92
2022-10-16T15:00:53.717Z,21.98
2022-10-16T15:03:20.184Z,21.98
2022-10-16T15:05:46.712Z,21.81
2022-10-16T15:08:14.000Z,21.88
2022-10-16T15:10:41.712Z,21.84
2022-10-16T15:13:09.768Z,21.80
2022-10-16T15:15:46.188Z,21.85
2022-10-16T15:18:13.193Z,21.65
2022-10-16T15:20:40.087Z,21.79
2022-10-16T15:23:16.646Z,21.77
2022-10-16T15:25:44.828Z,21.66
2022-10-16T15:28:11.762Z,21.46
2022-10-16T15:30:38.341Z,21.48
2022-10-16T15:33:05.429Z,21.50
2022-10-16T15:35:32.110Z,21.49
2022-10-16T15:37:59.159Z,21.53
2022-10-16T15:40:25.565Z,21.39
2022-10-16T15:42:52.018Z,21.31
2022-10-16T15:45:20.038Z,21.16
2022-10-16T15:47:46.843Z,21.02
2022-10-16T15:50:14.465Z,20.85
2022-10-16T15:52:41.204Z,20.63
2022-10-16T15:55:08.711Z,20.48
2022-10-16T15:57:35.071Z,20.32
2022-10-16T16:00:03.130Z,20.17
2022-10-16T16:02:31.815Z,20.09
2022-10-16T16:04:58.152Z,19.96
2022-10-16T16:07:24.467Z,19.86
2022-10-16T16:09:50.839Z,19.93
2022-10-16T16:12:17.167Z,19.81
2022-10-16T16:14:47.152Z,19.67
2022-10-16T16:17:13.523Z,19.55
2022-10-16T16:19:39.844Z,19.53
2022-10-16T16:22:09.463Z,19.49
2022-10-16T16:24:38.808Z,19.44
2022-10-16T16:27:05.135Z,19.39
2022-10-16T16:29:31.497Z,19.34
2022-10-16T16:32:00.086Z,19.32
2022-10-16T16:34:26.851Z,19.20
2022-10-16T16:36:53.192Z,19.12
2022-10-16T16:39:19.951Z,19.09
2022-10-16T16:41:49.041Z,19.02
2022-10-16T16:44:16.144Z,18.99
2022-10-16T16:46:43.790Z,18.97
2022-10-16T16:49:11.435Z,18.92
2022-10-16T16:51:39.935Z,18.88
2022-10-16T16:54:08.581Z,18.88
2022-10-16T16:56:35.679Z,18.93
2022-10-16T16:59:02.177Z,18.98
2022-10-16T17:01:29.347Z,18.89
2022-10-16T17:03:56.657Z,18.83
2022-10-16T17:06:24.372Z,18.75
2022-10-16T17:08:51.173Z,18.70
2022-10-16T17:11:19.021Z,18.74
2022-10-16T17:13:45.847Z,18.73
2022-10-16T17:16:12.241Z,18.60
2022-10-16T17:18:38.633Z,18.44
2022-10-16T17:21:06.478Z,18.41
2022-10-16T17:23:33.585Z,18.40
2022-10-16T17:26:11.188Z,18.27
2022-10-16T17:28:37.779Z,18.33
2022-10-16T17:33:43.432Z,18.41
2022-10-16T17:36:10.567Z,18.43
2022-10-16T17:38:37.584Z,18.47
2022-10-16T17:41:14.101Z,18.46
2022-10-16T17:43:41.101Z,18.39
2022-10-16T17:46:08.066Z,18.36
2022-10-16T17:48:42.216Z,18.36
2022-10-16T17:51:09.490Z,18.31
2022-10-16T17:53:36.188Z,18.19
2022-10-16T17:56:05.668Z,18.20
2022-10-16T17:58:32.218Z,18.24
2022-10-16T18:00:58.619Z,18.25
2022-10-16T18:03:27.149Z,18.22
2022-10-16T18:05:54.351Z,18.16
2022-10-16T18:08:22.678Z,18.16
2022-10-16T18:10:51.647Z,18.15
2022-10-16T18:13:19.266Z,18.12
2022-10-16T18:15:46.065Z,18.03
2022-10-16T18:18:13.125Z,18.04
2022-10-16T18:20:39.690Z,18.07
2022-10-16T18:23:06.008Z,18.00
2022-10-16T18:25:32.910Z,17.83
2022-10-16T18:27:59.749Z,17.88
2022-10-16T18:30:26.136Z,17.90
2022-10-16T18:32:52.608Z,17.82
2022-10-16T18:35:19.441Z,17.88
2022-10-16T18:37:46.315Z,17.79
2022-10-16T18:40:13.269Z,17.74
2022-10-16T18:42:39.665Z,17.69
2022-10-16T18:45:06.232Z,17.64
2022-10-16T18:47:32.700Z,17.69
2022-10-16T18:49:59.090Z,17.55
2022-10-16T18:52:26.805Z,17.62
2022-10-16T18:54:55.388Z,17.57
2022-10-16T18:57:21.707Z,17.60
2022-10-16T18:59:49.108Z,17.60
2022-10-16T19:02:15.792Z,17.51
2022-10-16T19:04:42.173Z,17.42
2022-10-16T19:07:08.526Z,17.55
2022-10-16T19:09:35.245Z,17.46
2022-10-16T19:12:03.075Z,17.51
2022-10-16T19:14:30.177Z,17.57
2022-10-16T19:16:56.645Z,17.60
2022-10-16T19:19:23.781Z,17.50
2022-10-16T19:21:56.029Z,17.46
2022-10-16T19:24:22.352Z,17.39
2022-10-16T19:26:48.914Z,17.53
2022-10-16T19:29:15.236Z,17.49
2022-10-16T19:31:41.707Z,17.39
2022-10-16T19:34:09.696Z,17.43
2022-10-16T19:36:37.271Z,17.42
2022-10-16T19:39:05.506Z,17.38
2022-10-16T19:41:32.542Z,17.38
2022-10-16T19:44:02.500Z,17.32
2022-10-16T19:46:29.123Z,17.32
2022-10-16T19:48:56.632Z,17.28
2022-10-16T19:51:23.597Z,17.25
2022-10-16T19:53:53.356Z,17.22
2022-10-16T19:56:24.273Z,17.21
2022-10-16T19:58:51.962Z,17.11
2022-10-16T20:01:18.794Z,17.01
2022-10-16T20:03:46.113Z,17.02
2022-10-16T20:06:13.321Z,16.93
2022-10-16T20:08:41.254Z,16.89
2022-10-16T20:11:11.491Z,16.87
2022-10-16T20:13:41.414Z,16.76
2022-10-16T20:16:09.289Z,16.64
2022-10-16T20:18:35.678Z,16.59
2022-10-16T20:21:02.011Z,16.62
2022-10-16T20:23:28.393Z,16.61
2022-10-16T20:25:54.797Z,16.62
2022-10-16T20:28:22.297Z,16.57
2022-10-16T20:30:49.886Z,16.46
2022-10-16T20:33:16.724Z,16.50
2022-10-16T20:35:44.286Z,16.46
2022-10-16T20:38:11.717Z,16.45
2022-10-16T20:40:39.218Z,16.36
2022-10-16T20:43:05.991Z,16.30
2022-10-16T20:45:32.611Z,16.32
2022-10-16T20:47:59.091Z,16.20
2022-10-16T20:50:28.921Z,16.13
2022-10-16T20:52:55.502Z,16.15
2022-10-16T20:55:22.229Z,15.98
2022-10-16T20:57:48.632Z,15.92
2022-10-16T21:00:15.611Z,15.91
2022-10-16T21:02:41.988Z,15.85
2022-10-16T21:05:08.548Z,15.85
2022-10-16T21:07:34.872Z,15.79
2022-10-16T21:10:01.244Z,15.68
2022-10-16T21:12:27.999Z,15.65
2022-10-16T21:15:13.247Z,15.58
2022-10-16T21:17:40.061Z,15.60
2022-10-16T21:20:06.550Z,15.54
2022-10-16T21:22:32.943Z,15.56
2022-10-16T21:24:59.440Z,15.54
2022-10-16T21:27:25.822Z,15.57
2022-10-16T21:29:53.114Z,15.56
2022-10-16T21:32:21.193Z,15.37
2022-10-16T21:34:48.289Z,15.40
2022-10-16T21:37:14.920Z,15.32
2022-10-16T21:39:41.483Z,15.34
2022-10-16T21:42:08.062Z,15.40
2022-10-16T21:44:34.443Z,15.31
2022-10-16T21:47:00.760Z,15.32
2022-10-16T21:49:27.203Z,15.19
2022-10-16T21:51:53.516Z,15.17
2022-10-16T21:54:21.218Z,15.13
2022-10-16T21:56:47.536Z,15.14
2022-10-16T21:59:14.275Z,15.01
2022-10-16T22:01:41.182Z,14.98
2022-10-16T22:04:08.916Z,14.99
2022-10-16T22:06:35.231Z,14.98
2022-10-16T22:09:01.582Z,14.90
2022-10-16T22:11:36.615Z,14.76
2022-10-16T22:14:04.207Z,14.64
2022-10-16T22:16:30.815Z,14.68
2022-10-16T22:18:58.091Z,14.58
2022-10-16T22:21:24.751Z,14.54
2022-10-16T22:23:51.157Z,14.49
2022-10-16T22:26:17.493Z,14.48
2022-10-16T22:28:43.946Z,14.36
2022-10-16T22:31:11.937Z,14.29
2022-10-16T22:33:38.621Z,14.23
2022-10-16T22:36:05.982Z,14.20
2022-10-16T22:38:33.836Z,14.13
2022-10-16T22:41:04.323Z,14.17
2022-10-16T22:43:30.725Z,14.20
2022-10-16T22:46:01.581Z,14.30
2022-10-16T22:48:27.904Z,14.33
2022-10-16T22:50:54.852Z,14.30
2022-10-16T22:53:21.223Z,14.33
2022-10-16T22:55:47.588Z,14.24
2022-10-16T22:58:13.938Z,14.26
2022-10-16T23:00:41.694Z,14.22
2022-10-16T23:03:08.285Z,14.12
2022-10-16T23:05:37.688Z,14.18
2022-10-16T23:08:04.517Z,14.14
2022-10-16T23:10:30.905Z,14.07
2022-10-16T23:12:57.213Z,14.08
2022-10-16T23:15:23.875Z,14.04
2022-10-16T23:17:50.217Z,14.00
2022-10-16T23:20:16.592Z,13.98
2022-10-16T23:22:42.920Z,14.00
2022-10-16T23:25:09.335Z,13.93
2022-10-16T23:27:35.710Z,13.87
2022-10-16T23:30:02.101Z,13.77
2022-10-16T23:32:28.640Z,13.81
2022-10-16T23:34:55.423Z,13.68
2022-10-16T23:37:21.751Z,13.69
2022-10-16T23:39:48.059Z,13.67
2022-10-16T23:42:14.377Z,13.70
2022-10-16T23:44:40.693Z,13.66
2022-10-16T23:47:07.045Z,13.62
2022-10-16T23:49:33.379Z,13.55
2022-10-16T23:51:59.705Z,13.53
2022-10-16T23:54:26.084Z,13.41
2022-10-16T23:56:52.416Z,13.32
2022-10-16T23:59:18.908Z,13.40
